CPA006 VHHH-RJAA
Flight info
| Callsign | CPA006 |
|---|---|
| Flight time | 2h 36m |
| Altitude | 41000 |
| Route | DALOL V631 ENVAR M750 MUKEP Y891 AGIMO Y89 GUPER Y81 RUTAS |
| Aircraft | B748/H-SDE3FGHIM1M2RWXY/LB1 |
Departure
| Time | 2026-05-06 03:45 |
|---|---|
| Airport | Hong Kong International Airport (VHHH) |
Arrival
| Time | 2026-05-06 06:21 |
|---|---|
| Airport | Narita International Airport (RJAA) |
| Time | Latitude | Longitude | Altitude | Speed | Heading |
|---|---|---|---|---|---|
| 2026-05-06 02:40 | 22.29817 | 113.91985 | 42 ft | 0 kts | 161° |
| 2026-05-06 03:27 | 22.29820 | 113.91984 | 42 ft | 2 kts | 161° |
| 2026-05-06 03:27 | 22.29835 | 113.91979 | 42 ft | 2 kts | 161° |
| 2026-05-06 03:28 | 22.29850 | 113.91973 | 42 ft | 2 kts | 161° |
| 2026-05-06 03:28 | 22.29866 | 113.91969 | 42 ft | 2 kts | 184° |
| 2026-05-06 03:28 | 22.29881 | 113.91974 | 42 ft | 2 kts | 214° |
| 2026-05-06 03:28 | 22.29891 | 113.91985 | 42 ft | 1 kts | 240° |
| 2026-05-06 03:29 | 22.29893 | 113.91987 | 42 ft | 0 kts | 241° |
| 2026-05-06 03:36 | 22.29886 | 113.91958 | 42 ft | 6 kts | 269° |
| 2026-05-06 03:36 | 22.29887 | 113.91913 | 42 ft | 6 kts | 272° |
| 2026-05-06 03:36 | 22.29882 | 113.91871 | 42 ft | 6 kts | 252° |
| 2026-05-06 03:36 | 22.29871 | 113.91831 | 42 ft | 5 kts | 252° |
| 2026-05-06 03:37 | 22.29862 | 113.91792 | 42 ft | 5 kts | 272° |
| 2026-05-06 03:37 | 22.29881 | 113.91760 | 42 ft | 5 kts | 325° |
| 2026-05-06 03:37 | 22.29922 | 113.91741 | 42 ft | 6 kts | 339° |
| 2026-05-06 03:37 | 22.29960 | 113.91725 | 42 ft | 6 kts | 340° |
| 2026-05-06 03:38 | 22.29997 | 113.91712 | 42 ft | 6 kts | 342° |
| 2026-05-06 03:38 | 22.30031 | 113.91693 | 42 ft | 5 kts | 308° |
| 2026-05-06 03:38 | 22.30030 | 113.91654 | 42 ft | 5 kts | 253° |
| 2026-05-06 03:38 | 22.30011 | 113.91584 | 42 ft | 12 kts | 251° |
| 2026-05-06 03:39 | 22.29980 | 113.91490 | 42 ft | 14 kts | 251° |
| 2026-05-06 03:39 | 22.29950 | 113.91397 | 42 ft | 13 kts | 250° |
| 2026-05-06 03:39 | 22.29920 | 113.91308 | 42 ft | 12 kts | 250° |
| 2026-05-06 03:39 | 22.29892 | 113.91222 | 42 ft | 12 kts | 251° |
| 2026-05-06 03:40 | 22.29865 | 113.91137 | 42 ft | 12 kts | 251° |
| 2026-05-06 03:40 | 22.29836 | 113.91044 | 42 ft | 14 kts | 251° |
| 2026-05-06 03:40 | 22.29801 | 113.90938 | 42 ft | 16 kts | 250° |
| 2026-05-06 03:40 | 22.29762 | 113.90819 | 42 ft | 18 kts | 251° |
| 2026-05-06 03:41 | 22.29721 | 113.90689 | 42 ft | 19 kts | 251° |
| 2026-05-06 03:41 | 22.29674 | 113.90545 | 42 ft | 21 kts | 251° |
| 2026-05-06 03:41 | 22.29624 | 113.90390 | 42 ft | 23 kts | 251° |
| 2026-05-06 03:41 | 22.29572 | 113.90227 | 42 ft | 23 kts | 250° |
| 2026-05-06 03:42 | 22.29529 | 113.90096 | 42 ft | 15 kts | 251° |
| 2026-05-06 03:42 | 22.29503 | 113.90015 | 42 ft | 10 kts | 251° |
| 2026-05-06 03:42 | 22.29484 | 113.89955 | 42 ft | 8 kts | 257° |
| 2026-05-06 03:42 | 22.29487 | 113.89897 | 42 ft | 7 kts | 293° |
| 2026-05-06 03:43 | 22.29519 | 113.89857 | 42 ft | 7 kts | 332° |
| 2026-05-06 03:43 | 22.29562 | 113.89834 | 42 ft | 7 kts | 337° |
| 2026-05-06 03:43 | 22.29608 | 113.89834 | 42 ft | 7 kts | 21° |
| 2026-05-06 03:43 | 22.29637 | 113.89870 | 42 ft | 6 kts | 68° |
| 2026-05-06 03:44 | 22.29652 | 113.89915 | 42 ft | 6 kts | 70° |
| 2026-05-06 03:44 | 22.29673 | 113.89979 | 42 ft | 19 kts | 70° |
| 2026-05-06 03:44 | 22.29757 | 113.90240 | 42 ft | 61 kts | 71° |
| 2026-05-06 03:44 | 22.29957 | 113.90858 | 42 ft | 112 kts | 71° |
| 2026-05-06 03:45 | 22.30263 | 113.91806 | 43 ft | 153 kts | 72° |
| 2026-05-06 03:45 | 22.30627 | 113.92950 | 274 ft | 161 kts | 72° |
| 2026-05-06 03:45 | 22.30981 | 113.94101 | 703 ft | 163 kts | 73° |
| 2026-05-06 03:45 | 22.31330 | 113.95253 | 1145 ft | 164 kts | 73° |
| 2026-05-06 03:46 | 22.31724 | 113.96462 | 1403 ft | 179 kts | 72° |
| 2026-05-06 03:46 | 22.32174 | 113.97784 | 1582 ft | 197 kts | 71° |
| 2026-05-06 03:46 | 22.32664 | 113.99224 | 2080 ft | 208 kts | 72° |
| 2026-05-06 03:46 | 22.33146 | 114.00714 | 2790 ft | 212 kts | 73° |
| 2026-05-06 03:47 | 22.33600 | 114.02243 | 3530 ft | 215 kts | 77° |
| 2026-05-06 03:47 | 22.33840 | 114.03828 | 4233 ft | 218 kts | 89° |
| 2026-05-06 03:47 | 22.33656 | 114.05467 | 4820 ft | 223 kts | 106° |
| 2026-05-06 03:47 | 22.32951 | 114.06971 | 5447 ft | 226 kts | 126° |
| 2026-05-06 03:48 | 22.31815 | 114.08117 | 6020 ft | 232 kts | 145° |
| 2026-05-06 03:48 | 22.30308 | 114.08849 | 6461 ft | 243 kts | 163° |
| 2026-05-06 03:48 | 22.28621 | 114.09082 | 7048 ft | 248 kts | 180° |
| 2026-05-06 03:48 | 22.26849 | 114.08928 | 7409 ft | 265 kts | 184° |
| 2026-05-06 03:49 | 22.24980 | 114.08790 | 8013 ft | 273 kts | 184° |
| 2026-05-06 03:49 | 22.23044 | 114.08685 | 8685 ft | 281 kts | 183° |
| 2026-05-06 03:49 | 22.21077 | 114.08643 | 9475 ft | 287 kts | 182° |
| 2026-05-06 03:49 | 22.19059 | 114.08658 | 10231 ft | 292 kts | 177° |
| 2026-05-06 03:50 | 22.17103 | 114.09304 | 10849 ft | 303 kts | 153° |
| 2026-05-06 03:50 | 22.15476 | 114.10804 | 11597 ft | 314 kts | 135° |
| 2026-05-06 03:50 | 22.14139 | 114.12722 | 12367 ft | 323 kts | 126° |
| 2026-05-06 03:50 | 22.13021 | 114.14808 | 13273 ft | 326 kts | 120° |
| 2026-05-06 03:51 | 22.11996 | 114.17046 | 14176 ft | 330 kts | 117° |
| 2026-05-06 03:51 | 22.11008 | 114.19263 | 15014 ft | 336 kts | 117° |
| 2026-05-06 03:51 | 22.09928 | 114.21573 | 15458 ft | 357 kts | 118° |
| 2026-05-06 03:51 | 22.08739 | 114.24038 | 15636 ft | 385 kts | 121° |
| 2026-05-06 03:52 | 22.07050 | 114.26360 | 16128 ft | 398 kts | 135° |
| 2026-05-06 03:52 | 22.05004 | 114.28405 | 16922 ft | 404 kts | 141° |
| 2026-05-06 03:52 | 22.02752 | 114.30258 | 17806 ft | 409 kts | 146° |
| 2026-05-06 03:52 | 22.00406 | 114.32012 | 18651 ft | 414 kts | 146° |
| 2026-05-06 03:53 | 21.98034 | 114.33840 | 19445 ft | 421 kts | 146° |
| 2026-05-06 03:53 | 21.95656 | 114.35715 | 20215 ft | 428 kts | 145° |
| 2026-05-06 03:53 | 21.93243 | 114.37619 | 21023 ft | 432 kts | 146° |
| 2026-05-06 03:53 | 21.90799 | 114.39543 | 21760 ft | 438 kts | 146° |
| 2026-05-06 03:54 | 21.88322 | 114.41496 | 22486 ft | 444 kts | 144° |
| 2026-05-06 03:54 | 21.86127 | 114.43867 | 23132 ft | 453 kts | 128° |
| 2026-05-06 03:54 | 21.84569 | 114.46842 | 23846 ft | 460 kts | 115° |
| 2026-05-06 03:54 | 21.83349 | 114.50039 | 24537 ft | 465 kts | 111° |
| 2026-05-06 03:55 | 21.82339 | 114.53369 | 25192 ft | 471 kts | 107° |
| 2026-05-06 03:55 | 21.81483 | 114.56782 | 25878 ft | 475 kts | 105° |
| 2026-05-06 03:55 | 21.80660 | 114.60252 | 26514 ft | 480 kts | 105° |
| 2026-05-06 03:55 | 21.79791 | 114.63746 | 27149 ft | 484 kts | 105° |
| 2026-05-06 03:56 | 21.78906 | 114.67207 | 27724 ft | 489 kts | 105° |
| 2026-05-06 03:56 | 21.77991 | 114.70748 | 28295 ft | 493 kts | 106° |
| 2026-05-06 03:56 | 21.77064 | 114.74328 | 28821 ft | 498 kts | 106° |
| 2026-05-06 03:56 | 21.76128 | 114.77936 | 29373 ft | 502 kts | 106° |
| 2026-05-06 03:57 | 21.75190 | 114.81566 | 29859 ft | 506 kts | 104° |
| 2026-05-06 03:57 | 21.74568 | 114.85307 | 30323 ft | 510 kts | 96° |
| 2026-05-06 03:57 | 21.74306 | 114.89121 | 30764 ft | 513 kts | 92° |
| 2026-05-06 03:57 | 21.74271 | 114.92979 | 31183 ft | 517 kts | 89° |
| 2026-05-06 03:58 | 21.74333 | 114.96858 | 31595 ft | 521 kts | 89° |
| 2026-05-06 03:58 | 21.74365 | 115.00775 | 31972 ft | 525 kts | 89° |
| 2026-05-06 03:58 | 21.74363 | 115.04664 | 32337 ft | 528 kts | 89° |
| 2026-05-06 03:58 | 21.74350 | 115.08672 | 32690 ft | 531 kts | 89° |
| 2026-05-06 03:59 | 21.74335 | 115.12594 | 33084 ft | 532 kts | 89° |
| 2026-05-06 03:59 | 21.74319 | 115.16583 | 33590 ft | 531 kts | 89° |
| 2026-05-06 03:59 | 21.74304 | 115.20551 | 34011 ft | 531 kts | 89° |
| 2026-05-06 03:59 | 21.74296 | 115.24528 | 34437 ft | 530 kts | 89° |
| 2026-05-06 04:00 | 21.74301 | 115.28486 | 34872 ft | 529 kts | 89° |
| 2026-05-06 04:00 | 21.74296 | 115.32441 | 35234 ft | 529 kts | 89° |
| 2026-05-06 04:00 | 21.74284 | 115.36404 | 35643 ft | 528 kts | 89° |
| 2026-05-06 04:00 | 21.74270 | 115.40357 | 36005 ft | 528 kts | 89° |
| 2026-05-06 04:01 | 21.74256 | 115.44246 | 36344 ft | 527 kts | 89° |
| 2026-05-06 04:01 | 21.74240 | 115.48192 | 36660 ft | 527 kts | 89° |
| 2026-05-06 04:01 | 21.74224 | 115.52120 | 36989 ft | 527 kts | 89° |
| 2026-05-06 04:01 | 21.74209 | 115.56069 | 37287 ft | 526 kts | 88° |
| 2026-05-06 04:02 | 21.74193 | 115.60011 | 37578 ft | 526 kts | 88° |
| 2026-05-06 04:02 | 21.74178 | 115.63941 | 37915 ft | 525 kts | 88° |
| 2026-05-06 04:02 | 21.74161 | 115.67860 | 38167 ft | 525 kts | 88° |
| 2026-05-06 04:02 | 21.74142 | 115.71792 | 38426 ft | 525 kts | 88° |
| 2026-05-06 04:03 | 21.74122 | 115.75722 | 38732 ft | 524 kts | 88° |
| 2026-05-06 04:03 | 21.74101 | 115.79660 | 38961 ft | 525 kts | 88° |
| 2026-05-06 04:03 | 21.74079 | 115.83588 | 39238 ft | 524 kts | 88° |
| 2026-05-06 04:03 | 21.74056 | 115.87498 | 39529 ft | 522 kts | 88° |
| 2026-05-06 04:04 | 21.74032 | 115.91394 | 39833 ft | 521 kts | 88° |
| 2026-05-06 04:04 | 21.74009 | 115.95292 | 40057 ft | 521 kts | 88° |
| 2026-05-06 04:04 | 21.74002 | 115.99176 | 40310 ft | 519 kts | 88° |
| 2026-05-06 04:04 | 21.73990 | 116.03055 | 40558 ft | 519 kts | 88° |
| 2026-05-06 04:05 | 21.73973 | 116.06936 | 40761 ft | 518 kts | 88° |
| 2026-05-06 04:05 | 21.73953 | 116.10751 | 40964 ft | 518 kts | 88° |
| 2026-05-06 04:05 | 21.73905 | 116.18543 | 41002 ft | 517 kts | 88° |
| 2026-05-06 04:06 | 21.73852 | 116.26273 | 41002 ft | 517 kts | 88° |
| 2026-05-06 04:06 | 21.73796 | 116.33957 | 41003 ft | 517 kts | 88° |
| 2026-05-06 04:07 | 21.73737 | 116.41694 | 41003 ft | 517 kts | 88° |
| 2026-05-06 04:07 | 21.73689 | 116.49439 | 41003 ft | 517 kts | 88° |
| 2026-05-06 04:08 | 21.73620 | 116.57172 | 41004 ft | 517 kts | 88° |
| 2026-05-06 04:08 | 21.73542 | 116.64911 | 41004 ft | 517 kts | 88° |
| 2026-05-06 04:09 | 21.73462 | 116.72591 | 41010 ft | 517 kts | 88° |
| 2026-05-06 04:09 | 21.74290 | 116.80215 | 41011 ft | 512 kts | 72° |
| 2026-05-06 04:10 | 21.76519 | 116.87465 | 41011 ft | 508 kts | 65° |
| 2026-05-06 04:10 | 21.79150 | 116.94516 | 41011 ft | 507 kts | 64° |
| 2026-05-06 04:11 | 21.81723 | 117.01526 | 41011 ft | 507 kts | 65° |
| 2026-05-06 04:11 | 21.84286 | 117.08607 | 41012 ft | 507 kts | 65° |
| 2026-05-06 04:12 | 21.86416 | 117.14493 | 41012 ft | 507 kts | 65° |
| 2026-05-06 04:12 | 21.89002 | 117.21567 | 41012 ft | 508 kts | 65° |
| 2026-05-06 04:13 | 21.91564 | 117.28670 | 41012 ft | 509 kts | 65° |
| 2026-05-06 04:13 | 21.94116 | 117.35790 | 41012 ft | 509 kts | 65° |
| 2026-05-06 04:14 | 21.96666 | 117.42917 | 41012 ft | 509 kts | 65° |
| 2026-05-06 04:14 | 21.99303 | 117.49930 | 41013 ft | 507 kts | 59° |
| 2026-05-06 04:15 | 22.02765 | 117.56540 | 41013 ft | 505 kts | 53° |
| 2026-05-06 04:15 | 22.06491 | 117.62946 | 41012 ft | 504 kts | 53° |
| 2026-05-06 04:16 | 22.10159 | 117.69388 | 41012 ft | 504 kts | 54° |
| 2026-05-06 04:16 | 22.13828 | 117.75822 | 41012 ft | 504 kts | 53° |
| 2026-05-06 04:17 | 22.17474 | 117.82279 | 41003 ft | 504 kts | 54° |
| 2026-05-06 04:17 | 22.21115 | 117.88753 | 41003 ft | 504 kts | 54° |
| 2026-05-06 04:18 | 22.24730 | 117.95189 | 41004 ft | 504 kts | 54° |
| 2026-05-06 04:18 | 22.28376 | 118.01670 | 41003 ft | 504 kts | 53° |
| 2026-05-06 04:19 | 22.32147 | 118.08060 | 41003 ft | 504 kts | 52° |
| 2026-05-06 04:19 | 22.35890 | 118.14455 | 41003 ft | 504 kts | 53° |
| 2026-05-06 04:20 | 22.39632 | 118.20865 | 41002 ft | 504 kts | 53° |
| 2026-05-06 04:20 | 22.43317 | 118.27307 | 41001 ft | 504 kts | 53° |
| 2026-05-06 04:21 | 22.46954 | 118.33740 | 41001 ft | 505 kts | 54° |
| 2026-05-06 04:21 | 22.50639 | 118.40272 | 41000 ft | 505 kts | 54° |
| 2026-05-06 04:22 | 22.54273 | 118.46717 | 40999 ft | 505 kts | 53° |
| 2026-05-06 04:23 | 22.59796 | 118.56460 | 40985 ft | 506 kts | 53° |
| 2026-05-06 04:23 | 22.65956 | 118.67276 | 40982 ft | 507 kts | 53° |
| 2026-05-06 04:24 | 22.73349 | 118.80308 | 40982 ft | 508 kts | 53° |
| 2026-05-06 04:24 | 22.80774 | 118.93341 | 40981 ft | 507 kts | 53° |
| 2026-05-06 04:25 | 22.88122 | 119.06316 | 40981 ft | 509 kts | 53° |
| 2026-05-06 04:25 | 22.95535 | 119.19450 | 40982 ft | 508 kts | 53° |
| 2026-05-06 04:26 | 23.02933 | 119.32565 | 40986 ft | 510 kts | 53° |
| 2026-05-06 04:26 | 23.10318 | 119.45720 | 40986 ft | 509 kts | 53° |
| 2026-05-06 04:27 | 23.17680 | 119.58881 | 40986 ft | 510 kts | 53° |
| 2026-05-06 04:27 | 23.25021 | 119.71996 | 40987 ft | 511 kts | 53° |
| 2026-05-06 04:28 | 23.32354 | 119.85206 | 40987 ft | 510 kts | 53° |
| 2026-05-06 04:28 | 23.40600 | 119.97661 | 40987 ft | 502 kts | 40° |
| 2026-05-06 04:29 | 23.50948 | 120.07677 | 40988 ft | 497 kts | 34° |
| 2026-05-06 04:29 | 23.61143 | 120.17956 | 40991 ft | 499 kts | 38° |
| 2026-05-06 04:30 | 23.71123 | 120.28337 | 40996 ft | 499 kts | 37° |
| 2026-05-06 04:30 | 23.81235 | 120.38841 | 41005 ft | 498 kts | 37° |
| 2026-05-06 04:31 | 23.91230 | 120.49250 | 41013 ft | 500 kts | 37° |
| 2026-05-06 04:31 | 24.01237 | 120.59814 | 41018 ft | 500 kts | 38° |
| 2026-05-06 04:32 | 24.11241 | 120.70404 | 41019 ft | 499 kts | 38° |
| 2026-05-06 04:32 | 24.21281 | 120.80993 | 41021 ft | 501 kts | 37° |
| 2026-05-06 04:33 | 24.31283 | 120.91613 | 41020 ft | 501 kts | 38° |
| 2026-05-06 04:33 | 24.41298 | 121.02310 | 41017 ft | 503 kts | 39° |
| 2026-05-06 04:34 | 24.50324 | 121.14203 | 41013 ft | 510 kts | 47° |
| 2026-05-06 04:34 | 24.58937 | 121.26622 | 41005 ft | 511 kts | 46° |
| 2026-05-06 04:35 | 24.67768 | 121.38739 | 40998 ft | 511 kts | 45° |
| 2026-05-06 04:35 | 24.76631 | 121.50987 | 40995 ft | 511 kts | 46° |
| 2026-05-06 04:36 | 24.85449 | 121.63273 | 40994 ft | 511 kts | 46° |
| 2026-05-06 04:36 | 24.94383 | 121.75404 | 40994 ft | 509 kts | 43° |
| 2026-05-06 04:37 | 25.03787 | 121.87116 | 40993 ft | 507 kts | 43° |
| 2026-05-06 04:37 | 25.12983 | 121.98946 | 40993 ft | 509 kts | 43° |
| 2026-05-06 04:38 | 25.22191 | 122.10877 | 40992 ft | 512 kts | 44° |
| 2026-05-06 04:38 | 25.31376 | 122.22804 | 40991 ft | 512 kts | 43° |
| 2026-05-06 04:39 | 25.40633 | 122.34811 | 40989 ft | 512 kts | 44° |
| 2026-05-06 04:39 | 25.49847 | 122.46851 | 40988 ft | 512 kts | 44° |
| 2026-05-06 04:40 | 25.59073 | 122.58851 | 40987 ft | 512 kts | 44° |
| 2026-05-06 04:40 | 25.68311 | 122.70892 | 40987 ft | 513 kts | 44° |
| 2026-05-06 04:41 | 25.77596 | 122.82942 | 40987 ft | 515 kts | 44° |
| 2026-05-06 04:41 | 25.86859 | 122.95091 | 40988 ft | 516 kts | 45° |
| 2026-05-06 04:42 | 25.96106 | 123.07239 | 40981 ft | 519 kts | 45° |
| 2026-05-06 04:42 | 26.05427 | 123.19545 | 40975 ft | 520 kts | 46° |
| 2026-05-06 04:43 | 26.14749 | 123.31875 | 40974 ft | 520 kts | 46° |
| 2026-05-06 04:43 | 26.24084 | 123.44189 | 40979 ft | 522 kts | 46° |
| 2026-05-06 04:44 | 26.33475 | 123.56660 | 40988 ft | 524 kts | 46° |
| 2026-05-06 04:44 | 26.42804 | 123.69086 | 40993 ft | 525 kts | 47° |
| 2026-05-06 04:45 | 26.52184 | 123.81580 | 40997 ft | 525 kts | 47° |
| 2026-05-06 04:45 | 26.61517 | 123.94110 | 41000 ft | 524 kts | 47° |
| 2026-05-06 04:46 | 26.70860 | 124.06644 | 41001 ft | 526 kts | 47° |
| 2026-05-06 04:46 | 26.80250 | 124.19227 | 41001 ft | 528 kts | 47° |
| 2026-05-06 04:47 | 26.89673 | 124.31912 | 40998 ft | 527 kts | 48° |
| 2026-05-06 04:47 | 26.99045 | 124.44581 | 40999 ft | 527 kts | 48° |
| 2026-05-06 04:48 | 27.08406 | 124.57215 | 41000 ft | 526 kts | 48° |
| 2026-05-06 04:48 | 27.17708 | 124.69819 | 41000 ft | 526 kts | 48° |
| 2026-05-06 04:49 | 27.27101 | 124.82477 | 41007 ft | 527 kts | 49° |
| 2026-05-06 04:49 | 27.36418 | 124.95185 | 41010 ft | 527 kts | 49° |
| 2026-05-06 04:50 | 27.45816 | 125.07935 | 41011 ft | 528 kts | 48° |
| 2026-05-06 04:50 | 27.55156 | 125.20580 | 41019 ft | 529 kts | 49° |
| 2026-05-06 04:51 | 27.64575 | 125.33361 | 41038 ft | 530 kts | 49° |
| 2026-05-06 04:51 | 27.74050 | 125.46184 | 41043 ft | 532 kts | 49° |
| 2026-05-06 04:52 | 27.83523 | 125.59098 | 41046 ft | 534 kts | 49° |
| 2026-05-06 04:52 | 27.92921 | 125.71954 | 41048 ft | 534 kts | 49° |
| 2026-05-06 04:53 | 28.02403 | 125.84964 | 41049 ft | 535 kts | 50° |
| 2026-05-06 04:53 | 28.11870 | 125.97992 | 41051 ft | 535 kts | 50° |
| 2026-05-06 04:54 | 28.21317 | 126.11033 | 41052 ft | 536 kts | 50° |
| 2026-05-06 04:54 | 28.30766 | 126.24117 | 41053 ft | 535 kts | 50° |
| 2026-05-06 04:55 | 28.40194 | 126.37212 | 41054 ft | 536 kts | 50° |
| 2026-05-06 04:55 | 28.49591 | 126.50305 | 41056 ft | 537 kts | 50° |
| 2026-05-06 04:56 | 28.59019 | 126.63483 | 41066 ft | 538 kts | 50° |
| 2026-05-06 04:56 | 28.68457 | 126.76716 | 41069 ft | 539 kts | 50° |
| 2026-05-06 04:57 | 28.77922 | 126.90029 | 41071 ft | 540 kts | 51° |
| 2026-05-06 04:57 | 28.87378 | 127.03372 | 41060 ft | 541 kts | 51° |
| 2026-05-06 04:58 | 28.96765 | 127.16660 | 41058 ft | 542 kts | 51° |
| 2026-05-06 04:58 | 29.06226 | 127.30095 | 41058 ft | 543 kts | 51° |
| 2026-05-06 04:59 | 29.15715 | 127.43617 | 41059 ft | 545 kts | 51° |
| 2026-05-06 04:59 | 29.23600 | 127.54885 | 41061 ft | 546 kts | 51° |
| 2026-05-06 05:00 | 29.33104 | 127.68505 | 41061 ft | 547 kts | 51° |
| 2026-05-06 05:00 | 29.44172 | 127.84411 | 41067 ft | 549 kts | 51° |
| 2026-05-06 05:01 | 29.52081 | 127.95844 | 41070 ft | 550 kts | 51° |
| 2026-05-06 05:01 | 29.61618 | 128.09655 | 41071 ft | 552 kts | 51° |
| 2026-05-06 05:02 | 29.71147 | 128.23519 | 41071 ft | 553 kts | 52° |
| 2026-05-06 05:02 | 29.80721 | 128.37397 | 41071 ft | 553 kts | 51° |
| 2026-05-06 05:03 | 29.90255 | 128.51310 | 41068 ft | 552 kts | 52° |
| 2026-05-06 05:03 | 29.99689 | 128.65135 | 41068 ft | 552 kts | 52° |
| 2026-05-06 05:04 | 30.09223 | 128.79107 | 41068 ft | 554 kts | 52° |
| 2026-05-06 05:04 | 30.18720 | 128.93163 | 41069 ft | 554 kts | 52° |
| 2026-05-06 05:05 | 30.28226 | 129.07253 | 41070 ft | 555 kts | 52° |
| 2026-05-06 05:05 | 30.37699 | 129.21366 | 41071 ft | 556 kts | 52° |
| 2026-05-06 05:06 | 30.47194 | 129.35527 | 41073 ft | 556 kts | 52° |
| 2026-05-06 05:06 | 30.56666 | 129.49649 | 41074 ft | 557 kts | 52° |
| 2026-05-06 05:07 | 30.66140 | 129.63868 | 41086 ft | 557 kts | 52° |
| 2026-05-06 05:07 | 30.75619 | 129.78139 | 41089 ft | 557 kts | 52° |
| 2026-05-06 05:08 | 30.85032 | 129.92474 | 41089 ft | 557 kts | 54° |
| 2026-05-06 05:08 | 30.93329 | 130.07734 | 41090 ft | 558 kts | 61° |
| 2026-05-06 05:09 | 31.01263 | 130.23301 | 41092 ft | 560 kts | 59° |
| 2026-05-06 05:09 | 31.09432 | 130.38647 | 41093 ft | 559 kts | 59° |
| 2026-05-06 05:10 | 31.17585 | 130.54138 | 41095 ft | 560 kts | 59° |
| 2026-05-06 05:10 | 31.25734 | 130.69700 | 41098 ft | 560 kts | 59° |
| 2026-05-06 05:11 | 31.33845 | 130.85249 | 41103 ft | 560 kts | 59° |
| 2026-05-06 05:11 | 31.41912 | 131.00779 | 41106 ft | 561 kts | 59° |
| 2026-05-06 05:12 | 31.50082 | 131.16509 | 41108 ft | 561 kts | 60° |
| 2026-05-06 05:12 | 31.58091 | 131.32110 | 41109 ft | 563 kts | 60° |
| 2026-05-06 05:13 | 31.66154 | 131.47860 | 41111 ft | 563 kts | 60° |
| 2026-05-06 05:13 | 31.74184 | 131.63665 | 41112 ft | 564 kts | 60° |
| 2026-05-06 05:14 | 31.82272 | 131.79537 | 41112 ft | 566 kts | 60° |
| 2026-05-06 05:14 | 31.90342 | 131.95451 | 41111 ft | 567 kts | 60° |
| 2026-05-06 05:15 | 31.98410 | 132.11423 | 41109 ft | 567 kts | 60° |
| 2026-05-06 05:15 | 32.06432 | 132.27433 | 41115 ft | 567 kts | 60° |
| 2026-05-06 05:16 | 32.14353 | 132.43511 | 41118 ft | 567 kts | 63° |
| 2026-05-06 05:16 | 32.21295 | 132.60219 | 41119 ft | 566 kts | 66° |
| 2026-05-06 05:17 | 32.28240 | 132.76936 | 41121 ft | 567 kts | 64° |
| 2026-05-06 05:17 | 32.35261 | 132.93497 | 41122 ft | 567 kts | 64° |
| 2026-05-06 05:18 | 32.42260 | 133.10238 | 41124 ft | 568 kts | 64° |
| 2026-05-06 05:18 | 32.49269 | 133.27025 | 41126 ft | 568 kts | 65° |
| 2026-05-06 05:19 | 32.56214 | 133.43843 | 41127 ft | 568 kts | 64° |
| 2026-05-06 05:19 | 32.63191 | 133.60590 | 41129 ft | 568 kts | 64° |
| 2026-05-06 05:20 | 32.70136 | 133.77551 | 41139 ft | 568 kts | 64° |
| 2026-05-06 05:20 | 32.76981 | 133.94378 | 41144 ft | 568 kts | 65° |
| 2026-05-06 05:21 | 32.83559 | 134.11488 | 41149 ft | 568 kts | 71° |
| 2026-05-06 05:21 | 32.87852 | 134.29585 | 41154 ft | 568 kts | 78° |
| 2026-05-06 05:22 | 32.92207 | 134.47699 | 41152 ft | 569 kts | 74° |
| 2026-05-06 05:22 | 32.96696 | 134.65634 | 41153 ft | 568 kts | 76° |
| 2026-05-06 05:23 | 33.00817 | 134.83835 | 41172 ft | 568 kts | 82° |
| 2026-05-06 05:23 | 33.03535 | 135.11826 | 41176 ft | 566 kts | 85° |
| 2026-05-06 05:24 | 33.05591 | 135.30429 | 41175 ft | 565 kts | 86° |
| 2026-05-06 05:24 | 33.07528 | 135.49048 | 41171 ft | 566 kts | 86° |
| 2026-05-06 05:25 | 33.08942 | 135.62805 | 41172 ft | 566 kts | 86° |
| 2026-05-06 05:25 | 33.09888 | 135.72133 | 41172 ft | 567 kts | 86° |
| 2026-05-06 05:26 | 33.10823 | 135.81475 | 41173 ft | 567 kts | 86° |
| 2026-05-06 05:26 | 33.11753 | 135.90829 | 41173 ft | 568 kts | 87° |
| 2026-05-06 05:27 | 33.12672 | 136.00132 | 41173 ft | 568 kts | 87° |
| 2026-05-06 05:27 | 33.13630 | 136.09510 | 41174 ft | 569 kts | 86° |
| 2026-05-06 05:28 | 33.14599 | 136.18900 | 41174 ft | 569 kts | 86° |
| 2026-05-06 05:28 | 33.15510 | 136.28227 | 41174 ft | 569 kts | 87° |
| 2026-05-06 05:29 | 33.16413 | 136.37675 | 41175 ft | 569 kts | 87° |
| 2026-05-06 05:29 | 33.17300 | 136.46994 | 41176 ft | 569 kts | 87° |
| 2026-05-06 05:30 | 33.18195 | 136.56384 | 41177 ft | 569 kts | 86° |
| 2026-05-06 05:30 | 33.19084 | 136.65779 | 41177 ft | 569 kts | 87° |
| 2026-05-06 05:31 | 33.19995 | 136.75187 | 41178 ft | 569 kts | 86° |
| 2026-05-06 05:31 | 33.20901 | 136.84600 | 41160 ft | 570 kts | 87° |
| 2026-05-06 05:32 | 33.21762 | 136.93952 | 41159 ft | 570 kts | 87° |
| 2026-05-06 05:32 | 33.22621 | 137.03364 | 41178 ft | 570 kts | 87° |
| 2026-05-06 05:33 | 33.23652 | 137.12737 | 41179 ft | 570 kts | 82° |
| 2026-05-06 05:33 | 33.25306 | 137.22039 | 41181 ft | 573 kts | 79° |
| 2026-05-06 05:34 | 33.27006 | 137.31367 | 41181 ft | 574 kts | 80° |
| 2026-05-06 05:34 | 33.28651 | 137.40686 | 41181 ft | 574 kts | 80° |
| 2026-05-06 05:35 | 33.30281 | 137.50023 | 41182 ft | 573 kts | 80° |
| 2026-05-06 05:35 | 33.31947 | 137.59313 | 41183 ft | 573 kts | 80° |
| 2026-05-06 05:36 | 33.33585 | 137.68651 | 41183 ft | 573 kts | 80° |
| 2026-05-06 05:36 | 33.35207 | 137.77997 | 41184 ft | 574 kts | 80° |
| 2026-05-06 05:37 | 33.36824 | 137.87367 | 41185 ft | 574 kts | 80° |
| 2026-05-06 05:37 | 33.38450 | 137.96733 | 41186 ft | 574 kts | 79° |
| 2026-05-06 05:38 | 33.40063 | 138.06108 | 41186 ft | 575 kts | 80° |
| 2026-05-06 05:38 | 33.41635 | 138.15429 | 41186 ft | 575 kts | 80° |
| 2026-05-06 05:39 | 33.43212 | 138.24820 | 41195 ft | 574 kts | 80° |
| 2026-05-06 05:39 | 33.45765 | 138.33851 | 41200 ft | 575 kts | 64° |
| 2026-05-06 05:40 | 33.49666 | 138.42192 | 41200 ft | 574 kts | 56° |
| 2026-05-06 05:40 | 33.53922 | 138.50273 | 41198 ft | 573 kts | 56° |
| 2026-05-06 05:41 | 33.58091 | 138.58409 | 41198 ft | 572 kts | 55° |
| 2026-05-06 05:41 | 33.62276 | 138.66542 | 41198 ft | 572 kts | 56° |
| 2026-05-06 05:42 | 33.66380 | 138.74664 | 41198 ft | 572 kts | 56° |
| 2026-05-06 05:42 | 33.70497 | 138.82842 | 41198 ft | 572 kts | 56° |
| 2026-05-06 05:43 | 33.74612 | 138.91019 | 41196 ft | 572 kts | 56° |
| 2026-05-06 05:43 | 33.78732 | 138.99221 | 41091 ft | 572 kts | 56° |
| 2026-05-06 05:44 | 33.80783 | 139.03317 | 40678 ft | 573 kts | 56° |
| 2026-05-06 05:44 | 33.82817 | 139.07384 | 40062 ft | 574 kts | 56° |
| 2026-05-06 05:44 | 33.84873 | 139.11500 | 39415 ft | 573 kts | 55° |
| 2026-05-06 05:44 | 33.86924 | 139.15611 | 38763 ft | 572 kts | 54° |
| 2026-05-06 05:45 | 33.88975 | 139.19720 | 38105 ft | 572 kts | 54° |
| 2026-05-06 05:45 | 33.91027 | 139.23819 | 37446 ft | 571 kts | 54° |
| 2026-05-06 05:45 | 33.93108 | 139.27892 | 36790 ft | 571 kts | 55° |
| 2026-05-06 05:45 | 33.95159 | 139.31979 | 36107 ft | 571 kts | 56° |
| 2026-05-06 05:46 | 33.96510 | 139.34695 | 35667 ft | 570 kts | 56° |
| 2026-05-06 05:46 | 33.98559 | 139.38826 | 35173 ft | 564 kts | 56° |
| 2026-05-06 05:46 | 34.00556 | 139.42861 | 34659 ft | 558 kts | 57° |
| 2026-05-06 05:46 | 34.02505 | 139.46803 | 34151 ft | 553 kts | 57° |
| 2026-05-06 05:47 | 34.04466 | 139.50768 | 33645 ft | 548 kts | 57° |
| 2026-05-06 05:47 | 34.06422 | 139.54693 | 33145 ft | 543 kts | 56° |
| 2026-05-06 05:47 | 34.08570 | 139.58438 | 32649 ft | 538 kts | 51° |
| 2026-05-06 05:47 | 34.10861 | 139.61984 | 32149 ft | 534 kts | 49° |
| 2026-05-06 05:48 | 34.13211 | 139.65429 | 31650 ft | 530 kts | 48° |
| 2026-05-06 05:48 | 34.15544 | 139.68841 | 31151 ft | 526 kts | 48° |
| 2026-05-06 05:48 | 34.17850 | 139.72250 | 30654 ft | 522 kts | 49° |
| 2026-05-06 05:48 | 34.20119 | 139.75663 | 30155 ft | 517 kts | 50° |
| 2026-05-06 05:49 | 34.22357 | 139.79049 | 29657 ft | 513 kts | 50° |
| 2026-05-06 05:49 | 34.24580 | 139.82421 | 29155 ft | 510 kts | 50° |
| 2026-05-06 05:49 | 34.26751 | 139.85719 | 28657 ft | 506 kts | 50° |
| 2026-05-06 05:49 | 34.28936 | 139.89039 | 28154 ft | 502 kts | 50° |
| 2026-05-06 05:50 | 34.31103 | 139.92333 | 27652 ft | 498 kts | 50° |
| 2026-05-06 05:50 | 34.33253 | 139.95599 | 27154 ft | 494 kts | 50° |
| 2026-05-06 05:50 | 34.35388 | 139.98850 | 26656 ft | 492 kts | 50° |
| 2026-05-06 05:50 | 34.37516 | 140.02078 | 26161 ft | 488 kts | 50° |
| 2026-05-06 05:51 | 34.39617 | 140.05284 | 25670 ft | 484 kts | 50° |
| 2026-05-06 05:51 | 34.41695 | 140.08462 | 25182 ft | 480 kts | 50° |
| 2026-05-06 05:51 | 34.43766 | 140.11629 | 24695 ft | 476 kts | 50° |
| 2026-05-06 05:51 | 34.45796 | 140.14782 | 24212 ft | 473 kts | 52° |
| 2026-05-06 05:52 | 34.47626 | 140.18000 | 23875 ft | 469 kts | 56° |
| 2026-05-06 05:52 | 34.49363 | 140.21348 | 23532 ft | 468 kts | 58° |
| 2026-05-06 05:52 | 34.51045 | 140.24721 | 23191 ft | 465 kts | 58° |
| 2026-05-06 05:52 | 34.52728 | 140.28061 | 22854 ft | 462 kts | 58° |
| 2026-05-06 05:53 | 34.54410 | 140.31365 | 22518 ft | 459 kts | 58° |
| 2026-05-06 05:53 | 34.56092 | 140.34645 | 22186 ft | 457 kts | 57° |
| 2026-05-06 05:53 | 34.57790 | 140.37889 | 21856 ft | 454 kts | 57° |
| 2026-05-06 05:53 | 34.59464 | 140.41119 | 21529 ft | 450 kts | 57° |
| 2026-05-06 05:54 | 34.61114 | 140.44327 | 21206 ft | 448 kts | 57° |
| 2026-05-06 05:54 | 34.62760 | 140.47538 | 20882 ft | 445 kts | 57° |
| 2026-05-06 05:54 | 34.64388 | 140.50722 | 20560 ft | 442 kts | 57° |
| 2026-05-06 05:54 | 34.66002 | 140.53881 | 20229 ft | 439 kts | 58° |
| 2026-05-06 05:55 | 34.67608 | 140.57029 | 19905 ft | 436 kts | 58° |
| 2026-05-06 05:55 | 34.69202 | 140.60152 | 19585 ft | 433 kts | 58° |
| 2026-05-06 05:55 | 34.70874 | 140.63184 | 19254 ft | 430 kts | 49° |
| 2026-05-06 05:55 | 34.73062 | 140.65539 | 18949 ft | 422 kts | 30° |
| 2026-05-06 05:56 | 34.75674 | 140.67038 | 18593 ft | 412 kts | 15° |
| 2026-05-06 05:56 | 34.78404 | 140.67952 | 18296 ft | 404 kts | 8° |
| 2026-05-06 05:56 | 34.81148 | 140.68607 | 17999 ft | 400 kts | 4° |
| 2026-05-06 05:56 | 34.83894 | 140.69051 | 17707 ft | 395 kts | 0° |
| 2026-05-06 05:57 | 34.86616 | 140.69368 | 17419 ft | 392 kts | 359° |
| 2026-05-06 05:57 | 34.89332 | 140.69662 | 17133 ft | 390 kts | 359° |
| 2026-05-06 05:57 | 34.92030 | 140.69977 | 16849 ft | 388 kts | 360° |
| 2026-05-06 05:57 | 34.94719 | 140.70305 | 16567 ft | 387 kts | 0° |
| 2026-05-06 05:58 | 34.97392 | 140.70637 | 16287 ft | 385 kts | 0° |
| 2026-05-06 05:58 | 35.00055 | 140.70969 | 16007 ft | 383 kts | 0° |
| 2026-05-06 05:58 | 35.02668 | 140.71296 | 15733 ft | 381 kts | 1° |
| 2026-05-06 05:58 | 35.05336 | 140.71630 | 15453 ft | 379 kts | 1° |
| 2026-05-06 05:59 | 35.07916 | 140.71966 | 15181 ft | 378 kts | 2° |
| 2026-05-06 05:59 | 35.10516 | 140.72454 | 14907 ft | 377 kts | 5° |
| 2026-05-06 05:59 | 35.13094 | 140.73047 | 14633 ft | 376 kts | 7° |
| 2026-05-06 05:59 | 35.15649 | 140.73668 | 14361 ft | 374 kts | 7° |
| 2026-05-06 06:00 | 35.18200 | 140.74276 | 14090 ft | 371 kts | 7° |
| 2026-05-06 06:00 | 35.20731 | 140.74868 | 13821 ft | 370 kts | 7° |
| 2026-05-06 06:00 | 35.23252 | 140.75451 | 13494 ft | 367 kts | 7° |
| 2026-05-06 06:00 | 35.25759 | 140.76021 | 13123 ft | 363 kts | 8° |
| 2026-05-06 06:01 | 35.28233 | 140.76586 | 12854 ft | 362 kts | 8° |
| 2026-05-06 06:01 | 35.30703 | 140.77150 | 12589 ft | 359 kts | 8° |
| 2026-05-06 06:01 | 35.33104 | 140.77700 | 12332 ft | 351 kts | 8° |
| 2026-05-06 06:01 | 35.35475 | 140.78244 | 12079 ft | 343 kts | 8° |
| 2026-05-06 06:02 | 35.37804 | 140.78778 | 11831 ft | 336 kts | 9° |
| 2026-05-06 06:02 | 35.40076 | 140.79300 | 11590 ft | 329 kts | 9° |
| 2026-05-06 06:02 | 35.42302 | 140.79811 | 11353 ft | 322 kts | 9° |
| 2026-05-06 06:02 | 35.44482 | 140.80312 | 11122 ft | 316 kts | 9° |
| 2026-05-06 06:03 | 35.46620 | 140.80803 | 10895 ft | 309 kts | 9° |
| 2026-05-06 06:03 | 35.48715 | 140.81285 | 10673 ft | 303 kts | 9° |
| 2026-05-06 06:03 | 35.50763 | 140.81756 | 10455 ft | 298 kts | 9° |
| 2026-05-06 06:03 | 35.52793 | 140.82222 | 10239 ft | 292 kts | 9° |
| 2026-05-06 06:04 | 35.54775 | 140.82679 | 10058 ft | 285 kts | 9° |
| 2026-05-06 06:04 | 35.56694 | 140.83119 | 9894 ft | 279 kts | 9° |
| 2026-05-06 06:04 | 35.58591 | 140.83555 | 9658 ft | 275 kts | 9° |
| 2026-05-06 06:04 | 35.60454 | 140.83984 | 9458 ft | 270 kts | 9° |
| 2026-05-06 06:05 | 35.62281 | 140.84405 | 9270 ft | 272 kts | 9° |
| 2026-05-06 06:05 | 35.64144 | 140.84831 | 9081 ft | 272 kts | 8° |
| 2026-05-06 06:05 | 35.66006 | 140.84801 | 8848 ft | 268 kts | 344° |
| 2026-05-06 06:05 | 35.67640 | 140.83813 | 8756 ft | 259 kts | 325° |
| 2026-05-06 06:06 | 35.69202 | 140.82699 | 8587 ft | 263 kts | 329° |
| 2026-05-06 06:06 | 35.70788 | 140.81534 | 8170 ft | 266 kts | 323° |
| 2026-05-06 06:06 | 35.72250 | 140.80161 | 7937 ft | 260 kts | 315° |
| 2026-05-06 06:06 | 35.73489 | 140.78615 | 7832 ft | 249 kts | 308° |
| 2026-05-06 06:07 | 35.74590 | 140.76964 | 7663 ft | 250 kts | 303° |
| 2026-05-06 06:07 | 35.75602 | 140.75240 | 7491 ft | 247 kts | 301° |
| 2026-05-06 06:07 | 35.76557 | 140.73484 | 7321 ft | 246 kts | 299° |
| 2026-05-06 06:07 | 35.77495 | 140.71721 | 7148 ft | 245 kts | 299° |
| 2026-05-06 06:08 | 35.78435 | 140.69973 | 6977 ft | 245 kts | 299° |
| 2026-05-06 06:08 | 35.79379 | 140.68230 | 6807 ft | 244 kts | 299° |
| 2026-05-06 06:08 | 35.80324 | 140.66494 | 6639 ft | 244 kts | 299° |
| 2026-05-06 06:08 | 35.81266 | 140.64767 | 6469 ft | 242 kts | 299° |
| 2026-05-06 06:09 | 35.82208 | 140.63044 | 6302 ft | 242 kts | 299° |
| 2026-05-06 06:09 | 35.83145 | 140.61328 | 6135 ft | 241 kts | 299° |
| 2026-05-06 06:09 | 35.84076 | 140.59643 | 6024 ft | 241 kts | 301° |
| 2026-05-06 06:09 | 35.85102 | 140.57997 | 5838 ft | 241 kts | 303° |
| 2026-05-06 06:10 | 35.86171 | 140.56401 | 5670 ft | 242 kts | 305° |
| 2026-05-06 06:10 | 35.87250 | 140.54811 | 5506 ft | 241 kts | 304° |
| 2026-05-06 06:10 | 35.88319 | 140.53213 | 5345 ft | 241 kts | 304° |
| 2026-05-06 06:10 | 35.89381 | 140.51611 | 5187 ft | 241 kts | 304° |
| 2026-05-06 06:11 | 35.90435 | 140.50011 | 5030 ft | 240 kts | 304° |
| 2026-05-06 06:11 | 35.91489 | 140.48405 | 4873 ft | 240 kts | 304° |
| 2026-05-06 06:11 | 35.92527 | 140.46822 | 4718 ft | 240 kts | 304° |
| 2026-05-06 06:11 | 35.93588 | 140.45204 | 4560 ft | 239 kts | 304° |
| 2026-05-06 06:12 | 35.94636 | 140.43607 | 4403 ft | 239 kts | 304° |
| 2026-05-06 06:12 | 35.95667 | 140.42033 | 4250 ft | 239 kts | 304° |
| 2026-05-06 06:12 | 35.96699 | 140.40425 | 4094 ft | 238 kts | 303° |
| 2026-05-06 06:12 | 35.97688 | 140.38793 | 3946 ft | 236 kts | 301° |
| 2026-05-06 06:13 | 35.98640 | 140.37192 | 3783 ft | 227 kts | 301° |
| 2026-05-06 06:13 | 35.99557 | 140.35661 | 3641 ft | 216 kts | 301° |
| 2026-05-06 06:13 | 36.00430 | 140.34207 | 3505 ft | 204 kts | 301° |
| 2026-05-06 06:13 | 36.01249 | 140.32845 | 3360 ft | 191 kts | 301° |
| 2026-05-06 06:14 | 36.02021 | 140.31564 | 3216 ft | 185 kts | 301° |
| 2026-05-06 06:14 | 36.02801 | 140.30267 | 3126 ft | 190 kts | 301° |
| 2026-05-06 06:14 | 36.03452 | 140.28867 | 3037 ft | 186 kts | 285° |
| 2026-05-06 06:14 | 36.03737 | 140.27340 | 3016 ft | 181 kts | 274° |
| 2026-05-06 06:15 | 36.03720 | 140.25821 | 2988 ft | 174 kts | 250° |
| 2026-05-06 06:15 | 36.03007 | 140.24672 | 2996 ft | 169 kts | 217° |
| 2026-05-06 06:15 | 36.01959 | 140.24077 | 3015 ft | 165 kts | 200° |
| 2026-05-06 06:15 | 36.00830 | 140.23819 | 3003 ft | 165 kts | 186° |
| 2026-05-06 06:16 | 35.99700 | 140.24092 | 3008 ft | 168 kts | 167° |
| 2026-05-06 06:16 | 35.98626 | 140.24674 | 3013 ft | 169 kts | 160° |
| 2026-05-06 06:16 | 35.97596 | 140.25387 | 3008 ft | 170 kts | 155° |
| 2026-05-06 06:16 | 35.96588 | 140.26143 | 3003 ft | 171 kts | 154° |
| 2026-05-06 06:17 | 35.95585 | 140.26891 | 3027 ft | 163 kts | 154° |
| 2026-05-06 06:17 | 35.94633 | 140.27591 | 3005 ft | 159 kts | 154° |
| 2026-05-06 06:17 | 35.93687 | 140.28281 | 2992 ft | 155 kts | 154° |
| 2026-05-06 06:17 | 35.92768 | 140.28949 | 2925 ft | 153 kts | 154° |
| 2026-05-06 06:18 | 35.91841 | 140.29621 | 2687 ft | 154 kts | 154° |
| 2026-05-06 06:18 | 35.90905 | 140.30299 | 2476 ft | 154 kts | 154° |
| 2026-05-06 06:18 | 35.89980 | 140.30969 | 2304 ft | 154 kts | 154° |
| 2026-05-06 06:18 | 35.89072 | 140.31627 | 2080 ft | 148 kts | 154° |
| 2026-05-06 06:19 | 35.88203 | 140.32256 | 1871 ft | 142 kts | 153° |
| 2026-05-06 06:19 | 35.87372 | 140.32857 | 1699 ft | 138 kts | 153° |
| 2026-05-06 06:19 | 35.86536 | 140.33462 | 1518 ft | 137 kts | 153° |
| 2026-05-06 06:19 | 35.85727 | 140.34047 | 1323 ft | 137 kts | 152° |
| 2026-05-06 06:20 | 35.84902 | 140.34644 | 1144 ft | 137 kts | 151° |
| 2026-05-06 06:20 | 35.84078 | 140.35239 | 961 ft | 137 kts | 151° |
| 2026-05-06 06:20 | 35.83256 | 140.35833 | 779 ft | 137 kts | 151° |
| 2026-05-06 06:20 | 35.82437 | 140.36425 | 598 ft | 137 kts | 150° |
| 2026-05-06 06:21 | 35.81612 | 140.37019 | 419 ft | 137 kts | 150° |
| 2026-05-06 06:21 | 35.80790 | 140.37616 | 237 ft | 137 kts | 150° |
| 2026-05-06 06:21 | 35.79990 | 140.38190 | 149 ft | 117 kts | 149° |
| 2026-05-06 06:21 | 35.79503 | 140.38542 | 149 ft | 49 kts | 149° |
| 2026-05-06 06:22 | 35.79244 | 140.38731 | 149 ft | 39 kts | 149° |
| 2026-05-06 06:22 | 35.79030 | 140.38881 | 149 ft | 31 kts | 152° |
| 2026-05-06 06:22 | 35.78848 | 140.38939 | 149 ft | 26 kts | 175° |
| 2026-05-06 06:22 | 35.78681 | 140.38958 | 149 ft | 23 kts | 174° |
| 2026-05-06 06:23 | 35.78578 | 140.38972 | 149 ft | 9 kts | 158° |
| 2026-05-06 06:23 | 35.78531 | 140.39020 | 149 ft | 9 kts | 136° |
| 2026-05-06 06:23 | 35.78489 | 140.39069 | 149 ft | 8 kts | 136° |
| 2026-05-06 06:23 | 35.78446 | 140.39114 | 149 ft | 8 kts | 146° |
| 2026-05-06 06:24 | 35.78395 | 140.39131 | 149 ft | 7 kts | 172° |
| 2026-05-06 06:24 | 35.78345 | 140.39143 | 149 ft | 7 kts | 168° |
| 2026-05-06 06:24 | 35.78298 | 140.39157 | 149 ft | 7 kts | 166° |
| 2026-05-06 06:24 | 35.78253 | 140.39172 | 149 ft | 7 kts | 165° |
| 2026-05-06 06:25 | 35.78208 | 140.39186 | 149 ft | 6 kts | 166° |
| 2026-05-06 06:25 | 35.78164 | 140.39195 | 149 ft | 6 kts | 183° |
| 2026-05-06 06:25 | 35.78107 | 140.39124 | 149 ft | 6 kts | 231° |
| 2026-05-06 06:26 | 35.78069 | 140.39116 | 149 ft | 6 kts | 169° |
| 2026-05-06 06:26 | 35.78022 | 140.39138 | 149 ft | 8 kts | 154° |
| 2026-05-06 06:26 | 35.77977 | 140.39175 | 149 ft | 8 kts | 131° |
| 2026-05-06 06:26 | 35.77950 | 140.39232 | 149 ft | 8 kts | 115° |
| 2026-05-06 06:27 | 35.77922 | 140.39303 | 149 ft | 10 kts | 115° |
| 2026-05-06 06:27 | 35.77886 | 140.39399 | 149 ft | 13 kts | 115° |
| 2026-05-06 06:27 | 35.77846 | 140.39481 | 149 ft | 11 kts | 138° |
| 2026-05-06 06:27 | 35.77785 | 140.39528 | 149 ft | 10 kts | 150° |
| 2026-05-06 06:28 | 35.77725 | 140.39571 | 149 ft | 10 kts | 150° |
| 2026-05-06 06:28 | 35.77663 | 140.39616 | 149 ft | 10 kts | 150° |
| 2026-05-06 06:28 | 35.77604 | 140.39658 | 149 ft | 10 kts | 149° |
| 2026-05-06 06:28 | 35.77547 | 140.39700 | 149 ft | 9 kts | 149° |
| 2026-05-06 06:29 | 35.77490 | 140.39740 | 149 ft | 10 kts | 149° |
| 2026-05-06 06:29 | 35.77416 | 140.39794 | 149 ft | 15 kts | 150° |
| 2026-05-06 06:29 | 35.77322 | 140.39862 | 149 ft | 15 kts | 149° |
| 2026-05-06 06:29 | 35.77231 | 140.39927 | 149 ft | 15 kts | 150° |
| 2026-05-06 06:30 | 35.77146 | 140.39987 | 149 ft | 14 kts | 153° |
| 2026-05-06 06:30 | 35.77057 | 140.39989 | 149 ft | 13 kts | 200° |
| 2026-05-06 06:30 | 35.76977 | 140.39947 | 149 ft | 12 kts | 205° |
| 2026-05-06 06:30 | 35.76931 | 140.39920 | 149 ft | 10 kts | 206° |
| 2026-05-06 06:31 | 35.76863 | 140.39870 | 149 ft | 8 kts | 243° |
| 2026-05-06 06:31 | 35.76842 | 140.39808 | 149 ft | 8 kts | 231° |
| 2026-05-06 06:31 | 35.76815 | 140.39782 | 149 ft | 7 kts | 205° |
| 2026-05-06 06:31 | 35.76771 | 140.39752 | 149 ft | 7 kts | 217° |
| 2026-05-06 06:32 | 35.76727 | 140.39706 | 149 ft | 10 kts | 221° |
| 2026-05-06 06:32 | 35.76662 | 140.39647 | 149 ft | 13 kts | 207° |
| 2026-05-06 06:32 | 35.76570 | 140.39599 | 149 ft | 16 kts | 204° |
| 2026-05-06 06:32 | 35.76468 | 140.39543 | 149 ft | 16 kts | 204° |
| 2026-05-06 06:33 | 35.76359 | 140.39483 | 149 ft | 18 kts | 204° |
| 2026-05-06 06:33 | 35.76246 | 140.39420 | 149 ft | 17 kts | 204° |
| 2026-05-06 06:33 | 35.76138 | 140.39360 | 149 ft | 17 kts | 204° |
| 2026-05-06 06:33 | 35.76038 | 140.39305 | 149 ft | 14 kts | 205° |
| 2026-05-06 06:34 | 35.75951 | 140.39256 | 149 ft | 13 kts | 204° |
| 2026-05-06 06:34 | 35.75869 | 140.39212 | 149 ft | 13 kts | 204° |
| 2026-05-06 06:34 | 35.75809 | 140.39138 | 149 ft | 12 kts | 239° |
| 2026-05-06 06:34 | 35.75767 | 140.39049 | 149 ft | 12 kts | 238° |
| 2026-05-06 06:35 | 35.75726 | 140.38965 | 149 ft | 11 kts | 239° |
| 2026-05-06 06:35 | 35.75687 | 140.38883 | 149 ft | 11 kts | 239° |
| 2026-05-06 06:35 | 35.75650 | 140.38805 | 149 ft | 10 kts | 239° |
| 2026-05-06 06:35 | 35.75615 | 140.38732 | 149 ft | 10 kts | 240° |
| 2026-05-06 06:36 | 35.75598 | 140.38652 | 149 ft | 10 kts | 267° |
| 2026-05-06 06:36 | 35.75598 | 140.38572 | 149 ft | 9 kts | 284° |
| 2026-05-06 06:36 | 35.75637 | 140.38516 | 149 ft | 9 kts | 328° |
| 2026-05-06 06:36 | 35.75689 | 140.38478 | 149 ft | 8 kts | 329° |
| 2026-05-06 06:37 | 35.75738 | 140.38442 | 149 ft | 8 kts | 330° |
| 2026-05-06 06:37 | 35.75787 | 140.38407 | 149 ft | 9 kts | 330° |
| 2026-05-06 06:37 | 35.75847 | 140.38364 | 149 ft | 11 kts | 329° |
| 2026-05-06 06:37 | 35.75919 | 140.38312 | 149 ft | 12 kts | 329° |
| 2026-05-06 06:38 | 35.76000 | 140.38253 | 149 ft | 15 kts | 329° |
| 2026-05-06 06:38 | 35.76093 | 140.38186 | 149 ft | 16 kts | 330° |
| 2026-05-06 06:38 | 35.76196 | 140.38112 | 149 ft | 18 kts | 329° |
| 2026-05-06 06:38 | 35.76309 | 140.38031 | 149 ft | 19 kts | 329° |
| 2026-05-06 06:39 | 35.76418 | 140.37952 | 149 ft | 17 kts | 330° |
| 2026-05-06 06:39 | 35.76508 | 140.37887 | 149 ft | 14 kts | 329° |
| 2026-05-06 06:39 | 35.76573 | 140.37843 | 149 ft | 10 kts | 344° |
| 2026-05-06 06:39 | 35.76624 | 140.37890 | 149 ft | 10 kts | 62° |
| 2026-05-06 06:40 | 35.76654 | 140.37961 | 149 ft | 9 kts | 60° |
| 2026-05-06 06:40 | 35.76703 | 140.37997 | 149 ft | 9 kts | 345° |
| 2026-05-06 06:40 | 35.76758 | 140.37963 | 149 ft | 9 kts | 329° |
| 2026-05-06 06:40 | 35.76809 | 140.37927 | 149 ft | 8 kts | 330° |
| 2026-05-06 06:41 | 35.76857 | 140.37892 | 149 ft | 8 kts | 330° |
| 2026-05-06 06:41 | 35.76903 | 140.37859 | 149 ft | 7 kts | 329° |
| 2026-05-06 06:41 | 35.76935 | 140.37837 | 149 ft | 4 kts | 331° |
| 2026-05-06 06:41 | 35.76959 | 140.37846 | 149 ft | 4 kts | 48° |
| 2026-05-06 06:42 | 35.76974 | 140.37875 | 149 ft | 4 kts | 58° |
| 2026-05-06 06:42 | 35.76988 | 140.37902 | 149 ft | 4 kts | 58° |
| 2026-05-06 06:42 | 35.76999 | 140.37924 | 149 ft | 3 kts | 59° |
| 2026-05-06 06:42 | 35.77002 | 140.37929 | 149 ft | 0 kts | 59° |